createdAt,value
2018-11-13T00:00:24.970Z,98773.09
2018-11-13T00:02:53.986Z,98786.00
2018-11-13T00:05:23.116Z,98780.16
2018-11-13T00:07:51.663Z,98786.22
2018-11-13T00:10:20.163Z,98776.68
2018-11-13T00:12:48.851Z,98786.18
2018-11-13T00:15:17.552Z,98776.79
2018-11-13T00:17:46.273Z,98785.64
2018-11-13T00:20:15.990Z,98804.07
2018-11-13T00:22:44.919Z,98808.29
2018-11-13T00:25:14.730Z,98799.97
2018-11-13T00:27:43.890Z,98800.18
2018-11-13T00:30:15.515Z,98806.70
2018-11-13T00:32:44.660Z,98810.29
2018-11-13T00:35:13.968Z,98814.63
2018-11-13T00:37:43.132Z,98814.98
2018-11-13T00:40:12.322Z,98823.11
2018-11-13T00:42:41.838Z,98825.45
2018-11-13T00:45:10.593Z,98829.14
2018-11-13T00:47:39.098Z,98829.00
2018-11-13T00:50:11.461Z,98828.92
2018-11-13T00:52:40.521Z,98839.19
2018-11-13T00:55:09.152Z,98835.92
2018-11-13T00:57:37.750Z,98845.07
2018-11-13T01:00:09.464Z,98845.63
2018-11-13T01:02:38.106Z,98835.19
2018-11-13T01:05:08.655Z,98837.69
2018-11-13T01:07:37.242Z,98840.70
2018-11-13T01:10:06.332Z,98841.06
2018-11-13T01:12:34.990Z,98838.76
2018-11-13T01:15:03.521Z,98839.50
2018-11-13T01:17:32.614Z,98849.78
2018-11-13T01:20:00.875Z,98860.14
2018-11-13T01:22:29.596Z,98847.75
2018-11-13T01:24:58.051Z,98861.22
2018-11-13T01:27:26.825Z,98858.58
2018-11-13T01:29:58.049Z,98865.98
2018-11-13T01:32:29.522Z,98867.78
2018-11-13T01:34:58.226Z,98858.88
2018-11-13T01:37:26.768Z,98852.56
2018-11-13T01:39:55.389Z,98850.55
2018-11-13T01:42:24.462Z,98858.84
2018-11-13T01:44:53.056Z,98853.53
2018-11-13T01:47:21.623Z,98847.51
2018-11-13T01:49:50.091Z,98847.72
2018-11-13T01:52:18.713Z,98850.48
2018-11-13T01:54:47.402Z,98850.02
2018-11-13T01:57:15.915Z,98853.03
2018-11-13T01:59:46.890Z,98857.66
2018-11-13T02:02:15.436Z,98857.66
2018-11-13T02:04:44.570Z,98856.77
2018-11-13T02:07:13.757Z,98858.02
2018-11-13T02:09:42.797Z,98864.37
2018-11-13T02:12:11.674Z,98863.65
2018-11-13T02:14:41.057Z,98862.72
2018-11-13T02:17:09.705Z,98867.67
2018-11-13T02:19:38.945Z,98879.93
2018-11-13T02:22:07.434Z,98892.02
2018-11-13T02:24:36.092Z,98897.70
2018-11-13T02:27:04.994Z,98900.47
2018-11-13T02:29:33.655Z,98897.74
2018-11-13T02:32:02.134Z,98896.13
2018-11-13T02:34:30.754Z,98898.64
2018-11-13T02:36:59.568Z,98905.94
2018-11-13T02:39:28.126Z,98908.59
2018-11-13T02:41:56.925Z,98910.40
2018-11-13T02:44:25.477Z,98922.78
2018-11-13T02:46:54.089Z,98929.80
2018-11-13T02:49:22.712Z,98927.45
2018-11-13T02:51:51.625Z,98926.64
2018-11-13T02:54:20.178Z,98925.92
2018-11-13T02:56:48.912Z,98948.25
2018-11-13T02:59:17.459Z,98940.28
2018-11-13T03:01:46.150Z,98951.25
2018-11-13T03:04:14.881Z,98948.87
2018-11-13T03:06:43.401Z,98938.36
2018-11-13T03:09:12.090Z,98944.63
2018-11-13T03:11:41.860Z,98945.98
2018-11-13T03:14:10.482Z,98947.53
2018-11-13T03:16:39.077Z,98954.34
2018-11-13T03:19:07.830Z,98953.77
2018-11-13T03:21:36.440Z,98963.23
2018-11-13T03:24:05.729Z,98958.41
2018-11-13T03:26:34.513Z,98959.09
2018-11-13T03:29:03.721Z,98965.71
2018-11-13T03:31:32.420Z,98972.31
2018-11-13T03:34:01.583Z,98975.73
2018-11-13T03:36:31.071Z,98978.95
2018-11-13T03:38:59.533Z,98991.97
2018-11-13T03:41:29.007Z,98990.31
2018-11-13T03:43:57.901Z,99002.22
2018-11-13T03:46:26.438Z,99004.47
2018-11-13T03:48:55.321Z,99005.48
2018-11-13T03:51:23.911Z,98994.53
2018-11-13T03:53:53.114Z,98999.73
2018-11-13T03:56:21.737Z,99004.73
2018-11-13T03:58:50.267Z,99004.62
2018-11-13T04:01:19.129Z,99014.06
2018-11-13T04:03:47.810Z,99012.75
2018-11-13T04:06:16.357Z,99001.07
2018-11-13T04:08:44.845Z,99010.56
2018-11-13T04:11:13.960Z,99023.49
2018-11-13T04:13:42.513Z,99025.98
2018-11-13T04:16:11.110Z,99027.84
2018-11-13T04:18:39.679Z,99032.53
2018-11-13T04:21:08.358Z,99035.10
2018-11-13T04:23:37.714Z,99044.25
2018-11-13T04:26:06.273Z,99050.03
2018-11-13T04:28:34.971Z,99040.91
2018-11-13T04:31:03.523Z,99044.97
2018-11-13T04:33:32.045Z,99053.63
2018-11-13T04:36:00.821Z,99069.03
2018-11-13T04:38:29.998Z,99066.08
2018-11-13T04:40:58.778Z,99073.08
2018-11-13T04:43:27.451Z,99056.72
2018-11-13T04:45:55.982Z,99067.59
2018-11-13T04:48:24.590Z,99052.19
2018-11-13T04:50:53.133Z,99054.31
2018-11-13T04:53:21.625Z,99060.54
2018-11-13T04:55:50.566Z,99054.36
2018-11-13T04:58:19.313Z,99068.00
2018-11-13T05:00:48.001Z,99057.34
2018-11-13T05:03:17.581Z,99064.31
2018-11-13T05:05:46.530Z,99074.22
2018-11-13T05:08:15.001Z,99070.28
2018-11-13T05:10:43.557Z,99073.75
2018-11-13T05:13:13.021Z,99075.08
2018-11-13T05:15:42.583Z,99083.81
2018-11-13T05:18:11.488Z,99088.34
2018-11-13T05:20:40.052Z,99089.34
2018-11-13T05:23:08.648Z,99092.40
2018-11-13T05:25:37.206Z,99092.45
2018-11-13T05:28:06.206Z,99094.71
2018-11-13T05:30:34.780Z,99099.64
2018-11-13T05:33:03.381Z,99102.28
2018-11-13T05:35:32.025Z,99103.61
2018-11-13T05:38:00.481Z,99112.53
2018-11-13T05:40:32.394Z,99118.99
2018-11-13T05:43:00.977Z,99125.72
2018-11-13T05:45:29.517Z,99120.42
2018-11-13T05:47:58.140Z,99124.00
2018-11-13T05:50:26.746Z,99132.70
2018-11-13T05:52:55.446Z,99134.09
2018-11-13T05:55:24.890Z,99141.03
2018-11-13T05:57:53.387Z,99155.44
2018-11-13T06:00:30.610Z,99149.70
2018-11-13T06:02:59.528Z,99154.80
2018-11-13T06:05:30.982Z,99160.28
2018-11-13T06:07:59.762Z,99177.23
2018-11-13T06:10:28.337Z,99176.39
2018-11-13T06:12:56.963Z,99172.80
2018-11-13T06:15:25.523Z,99193.13
2018-11-13T06:17:54.152Z,99202.73
2018-11-13T06:20:23.134Z,99204.59
2018-11-13T06:22:51.912Z,99210.85
2018-11-13T06:25:20.569Z,99211.69
2018-11-13T06:27:49.747Z,99215.84
2018-11-13T06:30:21.443Z,99225.89
2018-11-13T06:32:50.578Z,99227.22
2018-11-13T06:35:19.077Z,99224.11
2018-11-13T06:37:47.868Z,99215.37
2018-11-13T06:40:16.723Z,99215.05
2018-11-13T06:42:45.567Z,99210.41
2018-11-13T06:45:19.086Z,99222.06
2018-11-13T06:47:49.028Z,99221.59
2018-11-13T06:50:17.694Z,99243.27
2018-11-13T06:52:47.049Z,99254.78
2018-11-13T06:55:26.192Z,99272.47
2018-11-13T06:57:54.694Z,99270.65
2018-11-13T07:00:23.219Z,99270.69
2018-11-13T07:02:51.845Z,99283.34
2018-11-13T07:05:20.547Z,99277.65
2018-11-13T07:07:49.651Z,99300.92
2018-11-13T07:10:20.384Z,99300.41
2018-11-13T07:12:50.070Z,99300.02
2018-11-13T07:15:21.761Z,99301.34
2018-11-13T07:17:51.568Z,99300.92
2018-11-13T07:20:22.025Z,99299.08
2018-11-13T07:22:50.811Z,99296.78
2018-11-13T07:25:19.484Z,99292.22
2018-11-13T07:27:48.161Z,99292.90
2018-11-13T07:30:17.809Z,99298.92
2018-11-13T07:32:46.579Z,99317.05
2018-11-13T07:35:16.498Z,99313.36
2018-11-13T07:37:47.957Z,99320.75
2018-11-13T07:40:16.822Z,99324.39
2018-11-13T07:42:46.811Z,99328.19
2018-11-13T07:45:15.992Z,99330.29
2018-11-13T07:47:47.643Z,99337.25
2018-11-13T07:50:17.409Z,99346.05
2018-11-13T07:52:46.620Z,99347.74
2018-11-13T07:55:16.369Z,99344.52
2018-11-13T07:57:45.608Z,99343.85
2018-11-13T08:00:18.506Z,99348.70
2018-11-13T08:02:48.654Z,99351.27
2018-11-13T08:05:17.574Z,99357.24
2018-11-13T08:07:46.726Z,99368.16
2018-11-13T08:10:15.515Z,99377.61
2018-11-13T08:12:44.207Z,99386.02
2018-11-13T08:15:15.007Z,99396.30
2018-11-13T08:17:43.855Z,99401.46
2018-11-13T08:20:15.833Z,99397.41
2018-11-13T08:22:44.772Z,99406.08
2018-11-13T08:25:13.421Z,99409.38
2018-11-13T08:27:42.498Z,99412.83
2018-11-13T08:30:15.400Z,99407.03
2018-11-13T08:32:44.595Z,99399.34
2018-11-13T08:35:13.350Z,99397.16
2018-11-13T08:37:41.980Z,99403.17
2018-11-13T08:40:12.984Z,99400.02
2018-11-13T08:42:42.243Z,99392.80
2018-11-13T08:45:11.690Z,99405.34
2018-11-13T08:47:41.597Z,99401.90
2018-11-13T08:50:10.926Z,99381.33
2018-11-13T08:52:39.579Z,99361.13
2018-11-13T08:55:08.881Z,99362.86
2018-11-13T08:57:37.713Z,99359.89
2018-11-13T09:00:08.202Z,99362.19
2018-11-13T09:02:36.766Z,99374.96
2018-11-13T09:05:06.278Z,99380.55
2018-11-13T09:07:35.878Z,99375.30
2018-11-13T09:10:05.324Z,99380.88
2018-11-13T09:12:33.976Z,99383.59
2018-11-13T09:15:02.457Z,99387.27
2018-11-13T09:17:31.128Z,99378.02
2018-11-13T09:19:59.786Z,99371.60
2018-11-13T09:22:28.366Z,99382.37
2018-11-13T09:24:57.316Z,99392.72
2018-11-13T09:27:26.160Z,99396.36
2018-11-13T09:29:55.342Z,99394.45
2018-11-13T09:32:23.990Z,99413.50
2018-11-13T09:34:52.550Z,99417.26
2018-11-13T09:37:21.180Z,99435.03
2018-11-13T09:39:49.886Z,99439.92
2018-11-13T09:42:18.401Z,99439.52
2018-11-13T09:44:47.571Z,99435.09
2018-11-13T09:47:16.785Z,99423.92
2018-11-13T09:49:45.488Z,99407.54
2018-11-13T09:52:14.018Z,99413.16
2018-11-13T09:54:42.588Z,99426.80
2018-11-13T09:57:11.074Z,99441.18
2018-11-13T09:59:39.698Z,99446.53
2018-11-13T10:02:08.806Z,99444.85
2018-11-13T10:04:37.481Z,99462.36
2018-11-13T10:07:06.070Z,99466.72
2018-11-13T10:09:34.724Z,99459.97
2018-11-13T10:12:03.298Z,99452.64
2018-11-13T10:14:32.041Z,99440.84
2018-11-13T10:17:00.556Z,99445.72
2018-11-13T10:19:29.739Z,99448.25
2018-11-13T10:21:59.165Z,99444.85
2018-11-13T10:24:28.686Z,99457.92
2018-11-13T10:26:57.261Z,99458.50
2018-11-13T10:29:25.916Z,99468.23
2018-11-13T10:31:55.254Z,99473.17
2018-11-13T10:34:24.806Z,99463.53
2018-11-13T10:36:53.813Z,99466.69
2018-11-13T10:39:23.476Z,99468.70
2018-11-13T10:41:53.732Z,99482.05
2018-11-13T10:44:22.820Z,99483.78
2018-11-13T10:46:51.784Z,99479.95
2018-11-13T10:49:20.365Z,99470.58
2018-11-13T10:51:48.871Z,99477.42
2018-11-13T10:54:17.566Z,99473.45
2018-11-13T10:56:46.508Z,99478.09
2018-11-13T10:59:16.174Z,99497.73
2018-11-13T11:02:06.139Z,99506.94
2018-11-13T11:04:40.018Z,99505.47
2018-11-13T11:07:08.618Z,99495.41
2018-11-13T11:09:37.160Z,99505.91
2018-11-13T11:12:07.441Z,99519.23
2018-11-13T11:14:38.606Z,99514.38
2018-11-13T11:17:10.583Z,99498.89
2018-11-13T11:19:44.411Z,99500.32
2018-11-13T11:22:13.230Z,99509.50
2018-11-13T11:24:41.807Z,99516.27
2018-11-13T11:27:10.296Z,99513.63
2018-11-13T11:29:38.944Z,99519.45
2018-11-13T11:32:07.587Z,99513.34
2018-11-13T11:34:36.233Z,99519.16
2018-11-13T11:37:05.800Z,99522.67
2018-11-13T11:39:34.555Z,99528.06
2018-11-13T11:42:04.128Z,99543.55
2018-11-13T11:44:32.928Z,99541.80
2018-11-13T11:47:01.530Z,99548.27
2018-11-13T11:49:30.373Z,99540.45
2018-11-13T11:51:58.931Z,99534.77
2018-11-13T11:54:28.798Z,99529.84
2018-11-13T11:56:57.397Z,99536.05
2018-11-13T11:59:25.953Z,99538.79
2018-11-13T12:01:54.438Z,99537.80
2018-11-13T12:04:23.597Z,99536.50
2018-11-13T12:06:52.183Z,99525.02
2018-11-13T12:09:20.699Z,99541.69
2018-11-13T12:11:49.298Z,99560.24
2018-11-13T12:14:18.073Z,99546.22
2018-11-13T12:16:46.597Z,99542.91
2018-11-13T12:19:15.881Z,99549.64
2018-11-13T12:21:44.306Z,99551.87
2018-11-13T12:24:12.967Z,99566.20
2018-11-13T12:26:43.702Z,99555.20
2018-11-13T12:29:12.358Z,99561.38
2018-11-13T12:31:41.101Z,99567.74
2018-11-13T12:34:10.885Z,99569.33
2018-11-13T12:36:39.363Z,99565.97
2018-11-13T12:39:11.335Z,99564.78
2018-11-13T12:41:40.368Z,99567.42
2018-11-13T12:44:09.118Z,99561.05
2018-11-13T12:47:08.853Z,99571.47
2018-11-13T12:49:39.781Z,99577.34
2018-11-13T12:52:13.768Z,99585.71
2018-11-13T12:54:44.330Z,99575.34
2018-11-13T12:57:14.410Z,99584.85
2018-11-13T12:59:43.022Z,99586.95
2018-11-13T13:02:12.185Z,99581.84
2018-11-13T13:04:41.217Z,99583.27
2018-11-13T13:07:15.120Z,99584.56
2018-11-13T13:09:44.633Z,99579.59
2018-11-13T13:12:13.177Z,99590.66
2018-11-13T13:14:41.763Z,99582.63
2018-11-13T13:17:11.597Z,99592.00
2018-11-13T13:19:40.867Z,99605.77
2018-11-13T13:22:09.546Z,99608.23
2018-11-13T13:24:38.855Z,99612.95
2018-11-13T13:27:07.623Z,99613.76
2018-11-13T13:29:36.550Z,99610.18
2018-11-13T13:32:05.392Z,99600.62
2018-11-13T13:34:33.945Z,99607.92
2018-11-13T13:37:02.761Z,99607.88
2018-11-13T13:39:32.539Z,99599.64
2018-11-13T13:42:01.084Z,99602.27
2018-11-13T13:44:29.994Z,99605.60
2018-11-13T13:46:58.701Z,99605.44
2018-11-13T13:49:27.553Z,99608.51
2018-11-13T13:51:56.266Z,99607.98
2018-11-13T13:54:27.919Z,99601.02
2018-11-13T13:56:56.583Z,99601.70
2018-11-13T13:59:25.103Z,99606.72
2018-11-13T14:01:53.867Z,99605.52
2018-11-13T14:04:22.370Z,99605.95
2018-11-13T14:06:51.005Z,99606.20
2018-11-13T14:09:19.661Z,99616.02
2018-11-13T14:11:48.440Z,99613.91
2018-11-13T14:14:17.109Z,99615.20
2018-11-13T14:16:46.004Z,99619.08
2018-11-13T14:19:14.555Z,99620.66
2018-11-13T14:21:43.606Z,99623.66
2018-11-13T14:24:12.115Z,99625.61
2018-11-13T14:26:40.871Z,99623.66
2018-11-13T14:29:09.529Z,99628.93
2018-11-13T14:31:38.088Z,99627.22
2018-11-13T14:34:08.789Z,99630.41
2018-11-13T14:36:38.078Z,99631.70
2018-11-13T14:39:09.622Z,99627.99
2018-11-13T14:41:38.386Z,99643.55
2018-11-13T14:44:07.124Z,99643.81
2018-11-13T14:46:38.113Z,99636.35
2018-11-13T14:49:06.912Z,99635.36
2018-11-13T14:51:35.610Z,99650.83
2018-11-13T14:54:04.310Z,99651.62
2018-11-13T15:33:50.589Z,99679.65
2018-11-13T15:36:19.286Z,99684.23
2018-11-13T15:38:49.197Z,99686.62
2018-11-13T15:41:17.826Z,99694.56
2018-11-13T15:43:46.503Z,99693.37
2018-11-13T15:46:15.073Z,99700.86
2018-11-13T15:48:44.198Z,99698.30
2018-11-13T15:51:13.323Z,99697.92
2018-11-13T15:53:42.423Z,99696.73
2018-11-13T15:56:11.112Z,99693.79
2018-11-13T15:58:40.156Z,99689.91
2018-11-13T16:01:08.725Z,99694.95
2018-11-13T16:03:39.083Z,99696.83
2018-11-13T16:06:08.861Z,99696.92
2018-11-13T16:08:37.517Z,99699.66
2018-11-13T16:11:06.942Z,99700.16
2018-11-13T16:13:35.630Z,99702.86
2018-11-13T16:16:04.336Z,99705.55
2018-11-13T16:18:33.337Z,99712.59
2018-11-13T16:21:01.860Z,99710.03
2018-11-13T16:23:30.498Z,99711.39
2018-11-13T16:25:59.203Z,99714.50
2018-11-13T16:28:28.070Z,99722.02
2018-11-13T16:30:56.794Z,99724.25
2018-11-13T16:33:25.367Z,99726.03
2018-11-13T16:35:54.152Z,99723.90
2018-11-13T16:38:22.909Z,99728.76
2018-11-13T16:40:51.766Z,99731.83
2018-11-13T16:43:21.359Z,99737.58
2018-11-13T16:45:50.050Z,99741.98
2018-11-13T16:48:18.866Z,99744.64
2018-11-13T16:50:50.925Z,99749.03
2018-11-13T16:53:20.020Z,99747.73
2018-11-13T16:55:54.930Z,99741.14
2018-11-13T16:58:23.767Z,99753.44
2018-11-13T17:00:52.521Z,99759.19
2018-11-13T17:03:21.280Z,99759.63
2018-11-13T17:05:57.638Z,99762.69
2018-11-13T17:08:27.049Z,99763.58
2018-11-13T17:10:55.723Z,99766.20
2018-11-13T17:13:24.588Z,99765.76
2018-11-13T17:15:53.180Z,99766.66
2018-11-13T17:18:21.788Z,99770.59
2018-11-13T17:20:51.078Z,99775.42
2018-11-13T17:23:19.866Z,99780.28
2018-11-13T17:25:48.686Z,99782.05
2018-11-13T17:28:18.170Z,99778.97
2018-11-13T17:30:46.660Z,99778.11
2018-11-13T17:33:15.322Z,99778.98
2018-11-13T17:35:44.285Z,99778.10
2018-11-13T17:38:13.846Z,99778.99
2018-11-13T17:40:43.194Z,99789.97
2018-11-13T17:43:13.616Z,99784.68
2018-11-13T17:45:42.958Z,99793.91
2018-11-13T17:48:12.581Z,99797.42
2018-11-13T17:50:42.896Z,99801.34
2018-11-13T17:53:13.484Z,99803.55
2018-11-13T17:55:42.468Z,99802.66
2018-11-13T17:58:13.111Z,99805.33
2018-11-13T18:00:44.025Z,99806.62
2018-11-13T18:03:14.393Z,99807.95
2018-11-13T18:05:44.667Z,99814.10
2018-11-13T18:08:14.407Z,99817.19
2018-11-13T18:10:45.345Z,99821.58
2018-11-13T18:13:14.590Z,99829.05
2018-11-13T18:15:49.232Z,99829.03
2018-11-13T18:18:17.915Z,99824.22
2018-11-13T18:20:46.476Z,99832.55
2018-11-13T18:23:15.280Z,99830.80
2018-11-13T18:25:43.958Z,99832.98
2018-11-13T18:28:12.557Z,99834.31
2018-11-13T18:30:42.299Z,99839.14
2018-11-13T18:33:11.114Z,99833.87
2018-11-13T18:35:40.611Z,99834.30
2018-11-13T18:38:11.157Z,99836.52
2018-11-13T18:40:39.898Z,99832.98
2018-11-13T18:43:08.932Z,99840.87
2018-11-13T18:45:38.991Z,99840.45
2018-11-13T18:48:07.625Z,99832.53
2018-11-13T18:50:39.559Z,99834.27
2018-11-13T18:53:08.181Z,99837.35
2018-11-13T18:55:36.757Z,99836.91
2018-11-13T18:58:05.980Z,99841.30
2018-11-13T19:00:36.694Z,99838.66
2018-11-13T19:03:06.388Z,99843.07
2018-11-13T19:05:35.977Z,99837.34
2018-11-13T19:08:04.882Z,99836.02
2018-11-13T19:10:38.021Z,99842.61
2018-11-13T19:13:10.121Z,99835.55
2018-11-13T19:15:42.868Z,99841.70
2018-11-13T19:18:11.924Z,99843.47
2018-11-13T19:20:40.905Z,99842.56
2018-11-13T19:23:09.640Z,99843.02
2018-11-13T19:25:38.898Z,99841.27
2018-11-13T19:28:09.141Z,99843.03
2018-11-13T19:30:37.723Z,99840.39
2018-11-13T19:33:06.586Z,99844.80
2018-11-13T19:35:35.244Z,99848.77
2018-11-13T19:38:03.843Z,99846.55
2018-11-13T19:40:33.947Z,99844.34
2018-11-13T19:43:04.204Z,99845.66
2018-11-13T19:45:32.784Z,99850.02
2018-11-13T19:48:01.483Z,99858.80
2018-11-13T19:50:31.406Z,99856.56
2018-11-13T19:53:00.138Z,99861.41
2018-11-13T19:55:29.190Z,99869.28
2018-11-13T19:57:57.862Z,99862.66
2018-11-13T20:00:28.562Z,99871.43
2018-11-13T20:02:58.449Z,99870.55
2018-11-13T20:05:27.755Z,99868.78
2018-11-13T20:07:56.465Z,99876.27
2018-11-13T20:10:26.478Z,99878.86
2018-11-13T20:12:56.406Z,99882.36
2018-11-13T20:15:26.336Z,99880.53
2018-11-13T20:17:54.894Z,99876.95
2018-11-13T20:20:25.929Z,99874.31
2018-11-13T20:22:54.912Z,99876.88
2018-11-13T20:25:25.178Z,99882.12
2018-11-13T20:27:53.803Z,99884.73
2018-11-13T20:30:31.161Z,99883.73
2018-11-13T20:33:00.153Z,99892.03
2018-11-13T20:35:28.883Z,99890.20
2018-11-13T20:37:58.159Z,99882.75
2018-11-13T20:40:28.058Z,99892.30
2018-11-13T20:42:57.862Z,99887.04
2018-11-13T20:45:26.646Z,99888.75
2018-11-13T20:47:55.138Z,99889.19
2018-11-13T20:50:26.238Z,99897.86
2018-11-13T20:53:31.240Z,99897.38
2018-11-13T21:00:16.995Z,99899.88
2018-11-13T21:03:06.492Z,99899.31
2018-11-13T21:09:55.893Z,99901.42
2018-11-13T21:12:25.638Z,99898.70
2018-11-13T21:14:54.348Z,99898.23
2018-11-13T21:17:26.977Z,99908.25
2018-11-13T21:20:00.480Z,99910.03
2018-11-13T21:26:30.426Z,99902.52
2018-11-13T21:28:59.421Z,99893.77
2018-11-13T21:31:28.099Z,99899.44
2018-11-13T21:33:56.724Z,99896.72
2018-11-13T21:36:26.138Z,99898.47
2018-11-13T21:38:55.490Z,99895.31
2018-11-13T21:48:21.110Z,99893.50
2018-11-13T21:51:02.785Z,99896.93
2018-11-13T21:53:40.107Z,99896.90
2018-11-13T21:56:08.798Z,99900.36
2018-11-13T21:58:38.045Z,99902.98
2018-11-13T22:01:06.987Z,99905.58
2018-11-13T22:03:35.714Z,99906.83
2018-11-13T22:06:04.273Z,99904.16
2018-11-13T22:08:32.789Z,99904.20
2018-11-13T22:11:01.376Z,99897.53
2018-11-13T22:13:30.122Z,99902.78
2018-11-13T22:15:58.854Z,99899.21
2018-11-13T22:18:27.490Z,99904.83
2018-11-13T22:20:56.002Z,99901.33
2018-11-13T22:23:24.837Z,99905.27
2018-11-13T22:25:53.226Z,99899.03
2018-11-13T22:28:21.745Z,99900.42
2018-11-13T22:30:50.378Z,99899.47
2018-11-13T22:33:18.932Z,99899.03
2018-11-13T22:35:47.658Z,99894.62
2018-11-13T22:38:16.277Z,99893.67
2018-11-13T22:40:44.931Z,99894.51
2018-11-13T22:43:13.735Z,99900.59
2018-11-13T22:45:43.050Z,99896.30
2018-11-13T22:48:12.251Z,99898.88
2018-11-13T22:50:41.596Z,99902.37
2018-11-13T22:53:10.368Z,99899.23
2018-11-13T22:55:39.420Z,99900.55
2018-11-13T22:58:08.066Z,99893.48
2018-11-13T23:00:38.526Z,99902.27
2018-11-13T23:03:08.230Z,99901.75
2018-11-13T23:05:36.902Z,99898.29
2018-11-13T23:08:06.281Z,99900.04
2018-11-13T23:10:34.766Z,99910.05
2018-11-13T23:13:03.815Z,99908.30
2018-11-13T23:15:35.669Z,99894.27
2018-11-13T23:18:04.410Z,99895.16
2018-11-13T23:20:32.893Z,99893.00
2018-11-13T23:23:01.657Z,99891.58
2018-11-13T23:25:30.294Z,99892.01
2018-11-13T23:27:59.125Z,99892.45
2018-11-13T23:30:28.413Z,99883.67
2018-11-13T23:32:57.684Z,99885.93
2018-11-13T23:35:26.430Z,99885.81
2018-11-13T23:37:56.591Z,99890.62
2018-11-13T23:40:26.442Z,99887.59
2018-11-13T23:42:55.357Z,99886.21
2018-11-13T23:45:25.216Z,99890.94
2018-11-13T23:47:53.936Z,99887.00
2018-11-13T23:50:22.539Z,99890.05
2018-11-13T23:52:51.739Z,99892.60
2018-11-13T23:55:20.391Z,99889.86
2018-11-13T23:57:49.373Z,99888.15
